sensor_id;sensor_type;location;lat;lon;timestamp;P1;durP1;ratioP1;P2;durP2;ratioP2
25567;SDS011;13455;51.480;7.594;2023-06-10T00:01:31;9.88;;;6.18;;
25567;SDS011;13455;51.480;7.594;2023-06-10T00:03:58;9.40;;;6.00;;
25567;SDS011;13455;51.480;7.594;2023-06-10T00:06:24;9.63;;;5.82;;
25567;SDS011;13455;51.480;7.594;2023-06-10T00:08:50;8.77;;;6.10;;
25567;SDS011;13455;51.480;7.594;2023-06-10T00:11:16;7.97;;;6.00;;
25567;SDS011;13455;51.480;7.594;2023-06-10T00:13:42;9.02;;;5.90;;
25567;SDS011;13455;51.480;7.594;2023-06-10T00:16:08;7.47;;;6.38;;
25567;SDS011;13455;51.480;7.594;2023-06-10T00:18:34;10.23;;;6.28;;
25567;SDS011;13455;51.480;7.594;2023-06-10T00:21:03;7.97;;;6.10;;
25567;SDS011;13455;51.480;7.594;2023-06-10T00:23:30;8.93;;;6.40;;
25567;SDS011;13455;51.480;7.594;2023-06-10T00:25:58;7.97;;;6.38;;
25567;SDS011;13455;51.480;7.594;2023-06-10T00:28:24;9.45;;;6.00;;
25567;SDS011;13455;51.480;7.594;2023-06-10T00:30:51;8.82;;;6.32;;
25567;SDS011;13455;51.480;7.594;2023-06-10T00:33:17;8.77;;;6.35;;
25567;SDS011;13455;51.480;7.594;2023-06-10T00:35:43;8.68;;;6.50;;
25567;SDS011;13455;51.480;7.594;2023-06-10T00:38:09;8.40;;;6.50;;
25567;SDS011;13455;51.480;7.594;2023-06-10T00:40:38;10.52;;;6.47;;
25567;SDS011;13455;51.480;7.594;2023-06-10T00:43:05;10.43;;;6.80;;
25567;SDS011;13455;51.480;7.594;2023-06-10T00:45:32;10.35;;;6.78;;
25567;SDS011;13455;51.480;7.594;2023-06-10T00:47:58;9.57;;;6.68;;
25567;SDS011;13455;51.480;7.594;2023-06-10T00:50:25;10.02;;;6.55;;
25567;SDS011;13455;51.480;7.594;2023-06-10T00:52:51;8.13;;;6.60;;
25567;SDS011;13455;51.480;7.594;2023-06-10T00:55:17;8.23;;;6.85;;
25567;SDS011;13455;51.480;7.594;2023-06-10T00:57:44;8.00;;;6.43;;
25567;SDS011;13455;51.480;7.594;2023-06-10T01:00:11;9.82;;;7.10;;
25567;SDS011;13455;51.480;7.594;2023-06-10T01:02:37;10.27;;;7.00;;
25567;SDS011;13455;51.480;7.594;2023-06-10T01:05:03;10.27;;;6.87;;
25567;SDS011;13455;51.480;7.594;2023-06-10T01:12:37;8.52;;;6.70;;
25567;SDS011;13455;51.480;7.594;2023-06-10T01:15:05;10.63;;;7.25;;
25567;SDS011;13455;51.480;7.594;2023-06-10T01:17:32;9.18;;;6.75;;
25567;SDS011;13455;51.480;7.594;2023-06-10T01:19:58;8.77;;;6.88;;
25567;SDS011;13455;51.480;7.594;2023-06-10T01:22:25;8.38;;;7.03;;
25567;SDS011;13455;51.480;7.594;2023-06-10T01:24:53;10.87;;;7.77;;
25567;SDS011;13455;51.480;7.594;2023-06-10T01:27:23;9.85;;;7.32;;
25567;SDS011;13455;51.480;7.594;2023-06-10T01:30:00;9.80;;;7.57;;
25567;SDS011;13455;51.480;7.594;2023-06-10T01:32:31;9.77;;;7.38;;
25567;SDS011;13455;51.480;7.594;2023-06-10T01:35:01;10.07;;;8.13;;
25567;SDS011;13455;51.480;7.594;2023-06-10T01:37:28;10.25;;;7.85;;
25567;SDS011;13455;51.480;7.594;2023-06-10T01:39:55;10.82;;;7.97;;
25567;SDS011;13455;51.480;7.594;2023-06-10T01:42:23;10.93;;;8.40;;
25567;SDS011;13455;51.480;7.594;2023-06-10T01:44:50;10.77;;;8.43;;
25567;SDS011;13455;51.480;7.594;2023-06-10T01:47:16;10.65;;;8.00;;
25567;SDS011;13455;51.480;7.594;2023-06-10T01:49:42;10.15;;;7.97;;
25567;SDS011;13455;51.480;7.594;2023-06-10T01:52:08;10.48;;;8.07;;
25567;SDS011;13455;51.480;7.594;2023-06-10T01:54:34;13.02;;;7.80;;
25567;SDS011;13455;51.480;7.594;2023-06-10T01:57:01;10.95;;;7.78;;
25567;SDS011;13455;51.480;7.594;2023-06-10T01:59:27;10.82;;;7.65;;
25567;SDS011;13455;51.480;7.594;2023-06-10T02:01:53;9.95;;;7.88;;
25567;SDS011;13455;51.480;7.594;2023-06-10T02:04:19;10.37;;;7.73;;
25567;SDS011;13455;51.480;7.594;2023-06-10T02:06:45;9.18;;;7.70;;
25567;SDS011;13455;51.480;7.594;2023-06-10T02:09:11;10.43;;;7.67;;
25567;SDS011;13455;51.480;7.594;2023-06-10T02:11:37;11.80;;;7.70;;
25567;SDS011;13455;51.480;7.594;2023-06-10T02:14:02;8.77;;;7.30;;
25567;SDS011;13455;51.480;7.594;2023-06-10T02:16:28;8.73;;;7.50;;
25567;SDS011;13455;51.480;7.594;2023-06-10T02:18:55;9.85;;;7.88;;
25567;SDS011;13455;51.480;7.594;2023-06-10T02:21:21;9.88;;;8.05;;
25567;SDS011;13455;51.480;7.594;2023-06-10T02:23:47;10.48;;;8.00;;
25567;SDS011;13455;51.480;7.594;2023-06-10T02:26:13;10.95;;;8.00;;
25567;SDS011;13455;51.480;7.594;2023-06-10T02:28:42;10.43;;;8.02;;
25567;SDS011;13455;51.480;7.594;2023-06-10T02:31:08;11.05;;;8.27;;
25567;SDS011;13455;51.480;7.594;2023-06-10T02:33:34;10.80;;;7.93;;
25567;SDS011;13455;51.480;7.594;2023-06-10T02:35:59;10.60;;;7.85;;
25567;SDS011;13455;51.480;7.594;2023-06-10T02:38:25;11.70;;;8.20;;
25567;SDS011;13455;51.480;7.594;2023-06-10T02:40:51;10.17;;;8.17;;
25567;SDS011;13455;51.480;7.594;2023-06-10T02:43:16;10.82;;;8.15;;
25567;SDS011;13455;51.480;7.594;2023-06-10T02:45:42;10.13;;;8.13;;
25567;SDS011;13455;51.480;7.594;2023-06-10T02:48:08;10.37;;;8.40;;
25567;SDS011;13455;51.480;7.594;2023-06-10T02:50:33;11.57;;;8.40;;
25567;SDS011;13455;51.480;7.594;2023-06-10T02:52:59;10.47;;;8.33;;
25567;SDS011;13455;51.480;7.594;2023-06-10T02:55:24;10.32;;;8.40;;
25567;SDS011;13455;51.480;7.594;2023-06-10T02:57:51;10.33;;;8.53;;
25567;SDS011;13455;51.480;7.594;2023-06-10T03:00:19;11.73;;;9.25;;
25567;SDS011;13455;51.480;7.594;2023-06-10T03:02:46;11.45;;;9.18;;
25567;SDS011;13455;51.480;7.594;2023-06-10T03:05:12;11.53;;;9.00;;
25567;SDS011;13455;51.480;7.594;2023-06-10T03:07:38;12.50;;;8.87;;
25567;SDS011;13455;51.480;7.594;2023-06-10T03:10:05;10.35;;;9.15;;
25567;SDS011;13455;51.480;7.594;2023-06-10T03:12:31;11.18;;;9.25;;
25567;SDS011;13455;51.480;7.594;2023-06-10T03:14:57;11.93;;;8.70;;
25567;SDS011;13455;51.480;7.594;2023-06-10T03:17:23;13.13;;;9.25;;
25567;SDS011;13455;51.480;7.594;2023-06-10T03:19:49;11.20;;;9.25;;
25567;SDS011;13455;51.480;7.594;2023-06-10T03:22:16;10.27;;;8.75;;
25567;SDS011;13455;51.480;7.594;2023-06-10T03:24:42;12.32;;;8.90;;
25567;SDS011;13455;51.480;7.594;2023-06-10T03:27:09;11.45;;;8.95;;
25567;SDS011;13455;51.480;7.594;2023-06-10T03:29:36;11.77;;;8.95;;
25567;SDS011;13455;51.480;7.594;2023-06-10T03:32:02;11.68;;;9.00;;
25567;SDS011;13455;51.480;7.594;2023-06-10T03:34:30;11.10;;;8.93;;
25567;SDS011;13455;51.480;7.594;2023-06-10T03:36:56;11.45;;;8.85;;
25567;SDS011;13455;51.480;7.594;2023-06-10T03:39:22;14.20;;;8.60;;
25567;SDS011;13455;51.480;7.594;2023-06-10T03:41:48;10.80;;;8.73;;
25567;SDS011;13455;51.480;7.594;2023-06-10T03:44:14;10.60;;;8.50;;
25567;SDS011;13455;51.480;7.594;2023-06-10T03:46:41;12.07;;;8.95;;
25567;SDS011;13455;51.480;7.594;2023-06-10T03:49:07;11.15;;;8.68;;
25567;SDS011;13455;51.480;7.594;2023-06-10T03:51:34;12.23;;;9.10;;
25567;SDS011;13455;51.480;7.594;2023-06-10T03:54:00;12.88;;;9.65;;
25567;SDS011;13455;51.480;7.594;2023-06-10T03:56:26;12.27;;;9.93;;
25567;SDS011;13455;51.480;7.594;2023-06-10T03:58:53;14.18;;;10.73;;
25567;SDS011;13455;51.480;7.594;2023-06-10T04:01:19;12.53;;;10.87;;
25567;SDS011;13455;51.480;7.594;2023-06-10T04:03:46;14.00;;;11.00;;
25567;SDS011;13455;51.480;7.594;2023-06-10T04:06:13;14.23;;;10.82;;
25567;SDS011;13455;51.480;7.594;2023-06-10T04:08:39;14.13;;;11.10;;
25567;SDS011;13455;51.480;7.594;2023-06-10T04:11:06;15.18;;;10.57;;
25567;SDS011;13455;51.480;7.594;2023-06-10T04:13:32;15.50;;;10.53;;
25567;SDS011;13455;51.480;7.594;2023-06-10T04:15:58;13.85;;;10.40;;
25567;SDS011;13455;51.480;7.594;2023-06-10T04:18:24;13.63;;;10.38;;
25567;SDS011;13455;51.480;7.594;2023-06-10T04:20:50;12.98;;;10.63;;
25567;SDS011;13455;51.480;7.594;2023-06-10T04:23:16;11.95;;;9.98;;
25567;SDS011;13455;51.480;7.594;2023-06-10T04:25:43;14.17;;;10.10;;
25567;SDS011;13455;51.480;7.594;2023-06-10T04:28:09;11.43;;;9.73;;
25567;SDS011;13455;51.480;7.594;2023-06-10T04:30:35;11.30;;;9.32;;
25567;SDS011;13455;51.480;7.594;2023-06-10T04:33:01;13.02;;;8.93;;
25567;SDS011;13455;51.480;7.594;2023-06-10T04:35:27;11.93;;;8.50;;
25567;SDS011;13455;51.480;7.594;2023-06-10T04:37:53;11.13;;;9.00;;
25567;SDS011;13455;51.480;7.594;2023-06-10T04:40:19;12.05;;;8.85;;
25567;SDS011;13455;51.480;7.594;2023-06-10T04:42:45;9.95;;;8.50;;
25567;SDS011;13455;51.480;7.594;2023-06-10T04:45:12;10.73;;;8.82;;
25567;SDS011;13455;51.480;7.594;2023-06-10T04:47:38;11.40;;;8.82;;
25567;SDS011;13455;51.480;7.594;2023-06-10T04:50:04;10.52;;;8.63;;
25567;SDS011;13455;51.480;7.594;2023-06-10T04:52:30;11.40;;;8.70;;
25567;SDS011;13455;51.480;7.594;2023-06-10T04:54:57;10.40;;;8.73;;
25567;SDS011;13455;51.480;7.594;2023-06-10T04:57:23;11.13;;;8.60;;
25567;SDS011;13455;51.480;7.594;2023-06-10T04:59:49;11.63;;;8.60;;
25567;SDS011;13455;51.480;7.594;2023-06-10T05:02:15;12.05;;;8.75;;
25567;SDS011;13455;51.480;7.594;2023-06-10T05:04:41;11.75;;;8.60;;
25567;SDS011;13455;51.480;7.594;2023-06-10T05:07:07;10.05;;;8.20;;
25567;SDS011;13455;51.480;7.594;2023-06-10T05:09:33;10.65;;;8.23;;
25567;SDS011;13455;51.480;7.594;2023-06-10T05:11:59;10.75;;;8.48;;
25567;SDS011;13455;51.480;7.594;2023-06-10T05:14:25;10.48;;;7.85;;
25567;SDS011;13455;51.480;7.594;2023-06-10T05:16:52;12.13;;;7.97;;
25567;SDS011;13455;51.480;7.594;2023-06-10T05:19:18;10.63;;;7.50;;
25567;SDS011;13455;51.480;7.594;2023-06-10T05:21:44;9.52;;;6.80;;
25567;SDS011;13455;51.480;7.594;2023-06-10T05:24:11;8.20;;;6.53;;
25567;SDS011;13455;51.480;7.594;2023-06-10T05:26:36;9.97;;;6.30;;
25567;SDS011;13455;51.480;7.594;2023-06-10T05:29:06;9.55;;;6.38;;
25567;SDS011;13455;51.480;7.594;2023-06-10T05:31:32;7.97;;;6.07;;
25567;SDS011;13455;51.480;7.594;2023-06-10T05:33:58;9.63;;;6.50;;
25567;SDS011;13455;51.480;7.594;2023-06-10T05:36:24;7.97;;;5.90;;
25567;SDS011;13455;51.480;7.594;2023-06-10T05:38:52;8.30;;;6.10;;
25567;SDS011;13455;51.480;7.594;2023-06-10T05:41:18;11.40;;;5.83;;
25567;SDS011;13455;51.480;7.594;2023-06-10T05:43:45;8.00;;;6.20;;
25567;SDS011;13455;51.480;7.594;2023-06-10T05:46:11;8.60;;;6.40;;
25567;SDS011;13455;51.480;7.594;2023-06-10T05:48:37;8.73;;;6.30;;
25567;SDS011;13455;51.480;7.594;2023-06-10T05:51:03;8.57;;;6.27;;
25567;SDS011;13455;51.480;7.594;2023-06-10T05:53:29;9.47;;;6.60;;
25567;SDS011;13455;51.480;7.594;2023-06-10T05:55:55;8.87;;;5.90;;
25567;SDS011;13455;51.480;7.594;2023-06-10T05:58:22;8.13;;;5.90;;
25567;SDS011;13455;51.480;7.594;2023-06-10T06:00:49;8.40;;;5.90;;
25567;SDS011;13455;51.480;7.594;2023-06-10T06:03:15;9.20;;;5.90;;
25567;SDS011;13455;51.480;7.594;2023-06-10T06:05:41;7.53;;;5.80;;
25567;SDS011;13455;51.480;7.594;2023-06-10T06:08:07;10.20;;;6.43;;
25567;SDS011;13455;51.480;7.594;2023-06-10T06:10:35;9.30;;;5.60;;
25567;SDS011;13455;51.480;7.594;2023-06-10T06:13:01;9.43;;;5.90;;
25567;SDS011;13455;51.480;7.594;2023-06-10T06:15:27;7.85;;;5.68;;
25567;SDS011;13455;51.480;7.594;2023-06-10T06:17:53;10.63;;;5.90;;
25567;SDS011;13455;51.480;7.594;2023-06-10T06:20:19;8.45;;;5.80;;
25567;SDS011;13455;51.480;7.594;2023-06-10T06:22:45;7.30;;;5.45;;
25567;SDS011;13455;51.480;7.594;2023-06-10T06:25:11;9.23;;;5.83;;
25567;SDS011;13455;51.480;7.594;2023-06-10T06:27:37;8.27;;;5.37;;
25567;SDS011;13455;51.480;7.594;2023-06-10T06:30:02;7.38;;;5.57;;
25567;SDS011;13455;51.480;7.594;2023-06-10T06:32:28;10.15;;;5.88;;
25567;SDS011;13455;51.480;7.594;2023-06-10T06:34:54;7.47;;;5.70;;
25567;SDS011;13455;51.480;7.594;2023-06-10T06:37:21;10.40;;;5.50;;
25567;SDS011;13455;51.480;7.594;2023-06-10T06:39:48;7.78;;;5.43;;
25567;SDS011;13455;51.480;7.594;2023-06-10T06:42:18;9.07;;;5.37;;
25567;SDS011;13455;51.480;7.594;2023-06-10T06:44:44;9.07;;;5.68;;
25567;SDS011;13455;51.480;7.594;2023-06-10T06:47:10;8.63;;;5.43;;
25567;SDS011;13455;51.480;7.594;2023-06-10T06:49:36;7.90;;;5.15;;
25567;SDS011;13455;51.480;7.594;2023-06-10T06:52:01;8.85;;;5.30;;
25567;SDS011;13455;51.480;7.594;2023-06-10T06:54:27;7.37;;;5.10;;
25567;SDS011;13455;51.480;7.594;2023-06-10T06:56:54;9.38;;;5.50;;
25567;SDS011;13455;51.480;7.594;2023-06-10T06:59:20;7.85;;;5.57;;
25567;SDS011;13455;51.480;7.594;2023-06-10T07:01:46;8.95;;;5.85;;
25567;SDS011;13455;51.480;7.594;2023-06-10T07:04:14;8.77;;;5.45;;
25567;SDS011;13455;51.480;7.594;2023-06-10T07:06:40;9.38;;;5.53;;
25567;SDS011;13455;51.480;7.594;2023-06-10T07:09:07;8.57;;;5.13;;
25567;SDS011;13455;51.480;7.594;2023-06-10T07:11:33;8.23;;;5.72;;
25567;SDS011;13455;51.480;7.594;2023-06-10T07:13:59;8.15;;;5.35;;
25567;SDS011;13455;51.480;7.594;2023-06-10T07:16:25;8.67;;;5.10;;
25567;SDS011;13455;51.480;7.594;2023-06-10T07:18:51;9.30;;;5.38;;
25567;SDS011;13455;51.480;7.594;2023-06-10T07:21:18;7.45;;;5.22;;
25567;SDS011;13455;51.480;7.594;2023-06-10T07:23:43;9.05;;;5.60;;
25567;SDS011;13455;51.480;7.594;2023-06-10T07:26:09;7.97;;;5.20;;
25567;SDS011;13455;51.480;7.594;2023-06-10T07:28:38;8.52;;;5.13;;
25567;SDS011;13455;51.480;7.594;2023-06-10T07:31:04;7.30;;;5.03;;
25567;SDS011;13455;51.480;7.594;2023-06-10T07:33:30;10.32;;;5.22;;
25567;SDS011;13455;51.480;7.594;2023-06-10T07:35:56;7.30;;;5.07;;
25567;SDS011;13455;51.480;7.594;2023-06-10T07:38:21;7.97;;;5.03;;
25567;SDS011;13455;51.480;7.594;2023-06-10T07:40:47;7.53;;;4.53;;
25567;SDS011;13455;51.480;7.594;2023-06-10T07:43:12;8.77;;;4.97;;
25567;SDS011;13455;51.480;7.594;2023-06-10T07:45:41;7.82;;;4.65;;
25567;SDS011;13455;51.480;7.594;2023-06-10T07:48:07;8.07;;;4.87;;
25567;SDS011;13455;51.480;7.594;2023-06-10T07:50:34;8.02;;;4.60;;
25567;SDS011;13455;51.480;7.594;2023-06-10T07:53:00;8.48;;;4.70;;
25567;SDS011;13455;51.480;7.594;2023-06-10T07:55:26;8.27;;;4.40;;
25567;SDS011;13455;51.480;7.594;2023-06-10T07:57:52;6.37;;;4.60;;
25567;SDS011;13455;51.480;7.594;2023-06-10T08:00:18;7.18;;;4.65;;
25567;SDS011;13455;51.480;7.594;2023-06-10T08:02:44;8.18;;;4.53;;
25567;SDS011;13455;51.480;7.594;2023-06-10T08:05:10;6.75;;;4.88;;
25567;SDS011;13455;51.480;7.594;2023-06-10T08:07:36;8.95;;;4.80;;
25567;SDS011;13455;51.480;7.594;2023-06-10T08:10:02;8.80;;;5.10;;
25567;SDS011;13455;51.480;7.594;2023-06-10T08:12:32;9.50;;;4.77;;
25567;SDS011;13455;51.480;7.594;2023-06-10T08:14:58;7.45;;;4.80;;
25567;SDS011;13455;51.480;7.594;2023-06-10T08:17:24;8.23;;;4.80;;
25567;SDS011;13455;51.480;7.594;2023-06-10T08:19:50;7.30;;;4.80;;
25567;SDS011;13455;51.480;7.594;2023-06-10T08:22:15;6.85;;;4.85;;
25567;SDS011;13455;51.480;7.594;2023-06-10T08:24:41;7.37;;;4.63;;
25567;SDS011;13455;51.480;7.594;2023-06-10T08:27:07;8.25;;;5.00;;
25567;SDS011;13455;51.480;7.594;2023-06-10T08:29:32;7.27;;;4.90;;
25567;SDS011;13455;51.480;7.594;2023-06-10T08:31:58;8.50;;;4.80;;
25567;SDS011;13455;51.480;7.594;2023-06-10T08:34:24;7.70;;;4.97;;
25567;SDS011;13455;51.480;7.594;2023-06-10T08:36:50;12.30;;;5.00;;
25567;SDS011;13455;51.480;7.594;2023-06-10T08:39:20;7.05;;;4.72;;
25567;SDS011;13455;51.480;7.594;2023-06-10T08:42:09;7.25;;;4.50;;
25567;SDS011;13455;51.480;7.594;2023-06-10T08:44:35;6.38;;;4.70;;
25567;SDS011;13455;51.480;7.594;2023-06-10T08:47:10;7.22;;;4.60;;
25567;SDS011;13455;51.480;7.594;2023-06-10T08:49:38;10.32;;;4.50;;
25567;SDS011;13455;51.480;7.594;2023-06-10T08:52:07;11.30;;;4.60;;
25567;SDS011;13455;51.480;7.594;2023-06-10T08:54:33;6.05;;;4.40;;
25567;SDS011;13455;51.480;7.594;2023-06-10T08:57:02;9.48;;;4.40;;
25567;SDS011;13455;51.480;7.594;2023-06-10T08:59:30;8.13;;;4.80;;
25567;SDS011;13455;51.480;7.594;2023-06-10T09:01:56;8.05;;;4.70;;
25567;SDS011;13455;51.480;7.594;2023-06-10T09:04:23;7.72;;;4.53;;
25567;SDS011;13455;51.480;7.594;2023-06-10T09:06:50;8.18;;;4.65;;
25567;SDS011;13455;51.480;7.594;2023-06-10T09:09:16;8.57;;;4.65;;
25567;SDS011;13455;51.480;7.594;2023-06-10T09:11:44;7.20;;;4.35;;
25567;SDS011;13455;51.480;7.594;2023-06-10T09:14:10;7.97;;;4.67;;
25567;SDS011;13455;51.480;7.594;2023-06-10T09:16:37;7.25;;;4.40;;
25567;SDS011;13455;51.480;7.594;2023-06-10T09:19:04;6.05;;;4.35;;
25567;SDS011;13455;51.480;7.594;2023-06-10T09:21:33;7.47;;;4.50;;
25567;SDS011;13455;51.480;7.594;2023-06-10T09:23:59;6.30;;;4.32;;
25567;SDS011;13455;51.480;7.594;2023-06-10T09:26:28;6.25;;;4.30;;
25567;SDS011;13455;51.480;7.594;2023-06-10T09:28:58;6.13;;;4.30;;
25567;SDS011;13455;51.480;7.594;2023-06-10T09:31:29;7.65;;;4.40;;
25567;SDS011;13455;51.480;7.594;2023-06-10T09:34:04;8.13;;;4.60;;
25567;SDS011;13455;51.480;7.594;2023-06-10T09:36:35;8.82;;;4.65;;
25567;SDS011;13455;51.480;7.594;2023-06-10T09:39:02;8.27;;;4.30;;
25567;SDS011;13455;51.480;7.594;2023-06-10T09:41:31;6.90;;;4.40;;
25567;SDS011;13455;51.480;7.594;2023-06-10T09:43:58;9.40;;;4.30;;
25567;SDS011;13455;51.480;7.594;2023-06-10T09:46:23;6.00;;;4.10;;
25567;SDS011;13455;51.480;7.594;2023-06-10T09:48:49;8.70;;;4.50;;
25567;SDS011;13455;51.480;7.594;2023-06-10T09:51:15;8.57;;;4.18;;
25567;SDS011;13455;51.480;7.594;2023-06-10T09:53:47;6.65;;;4.13;;
25567;SDS011;13455;51.480;7.594;2023-06-10T09:56:14;7.93;;;4.18;;
25567;SDS011;13455;51.480;7.594;2023-06-10T09:58:40;10.00;;;4.63;;
25567;SDS011;13455;51.480;7.594;2023-06-10T10:01:09;6.63;;;4.43;;
25567;SDS011;13455;51.480;7.594;2023-06-10T10:06:11;7.32;;;4.40;;
25567;SDS011;13455;51.480;7.594;2023-06-10T10:08:37;7.25;;;4.45;;
25567;SDS011;13455;51.480;7.594;2023-06-10T10:11:03;7.40;;;4.30;;
25567;SDS011;13455;51.480;7.594;2023-06-10T10:13:29;8.48;;;4.47;;
25567;SDS011;13455;51.480;7.594;2023-06-10T10:15:59;7.10;;;4.10;;
25567;SDS011;13455;51.480;7.594;2023-06-10T10:20:54;7.40;;;4.43;;
25567;SDS011;13455;51.480;7.594;2023-06-10T10:23:24;8.20;;;4.72;;
25567;SDS011;13455;51.480;7.594;2023-06-10T10:25:56;6.27;;;4.80;;
25567;SDS011;13455;51.480;7.594;2023-06-10T10:28:24;7.95;;;4.40;;
25567;SDS011;13455;51.480;7.594;2023-06-10T10:30:54;5.82;;;4.50;;
25567;SDS011;13455;51.480;7.594;2023-06-10T10:33:36;8.02;;;4.40;;
25567;SDS011;13455;51.480;7.594;2023-06-10T10:36:23;8.15;;;4.65;;
25567;SDS011;13455;51.480;7.594;2023-06-10T10:38:49;7.55;;;4.40;;
25567;SDS011;13455;51.480;7.594;2023-06-10T10:41:16;8.02;;;4.30;;
25567;SDS011;13455;51.480;7.594;2023-06-10T10:43:43;9.83;;;4.70;;
25567;SDS011;13455;51.480;7.594;2023-06-10T10:46:14;5.60;;;4.40;;
25567;SDS011;13455;51.480;7.594;2023-06-10T10:48:41;7.75;;;4.43;;
25567;SDS011;13455;51.480;7.594;2023-06-10T10:51:07;6.15;;;4.30;;
25567;SDS011;13455;51.480;7.594;2023-06-10T10:53:34;7.70;;;4.47;;
25567;SDS011;13455;51.480;7.594;2023-06-10T10:56:09;7.13;;;4.33;;
25567;SDS011;13455;51.480;7.594;2023-06-10T10:58:38;7.00;;;4.38;;
25567;SDS011;13455;51.480;7.594;2023-06-10T11:01:11;6.53;;;4.20;;
25567;SDS011;13455;51.480;7.594;2023-06-10T11:03:44;6.53;;;4.17;;
25567;SDS011;13455;51.480;7.594;2023-06-10T11:06:14;5.93;;;4.10;;
25567;SDS011;13455;51.480;7.594;2023-06-10T11:11:20;7.43;;;4.47;;
25567;SDS011;13455;51.480;7.594;2023-06-10T11:14:07;6.37;;;4.43;;
25567;SDS011;13455;51.480;7.594;2023-06-10T11:16:41;7.35;;;4.18;;
25567;SDS011;13455;51.480;7.594;2023-06-10T11:19:08;9.43;;;4.40;;
25567;SDS011;13455;51.480;7.594;2023-06-10T11:21:45;7.07;;;4.20;;
25567;SDS011;13455;51.480;7.594;2023-06-10T11:24:23;7.32;;;4.20;;
25567;SDS011;13455;51.480;7.594;2023-06-10T11:26:51;7.95;;;4.30;;
25567;SDS011;13455;51.480;7.594;2023-06-10T11:29:16;7.23;;;4.10;;
25567;SDS011;13455;51.480;7.594;2023-06-10T11:31:45;8.82;;;4.40;;
25567;SDS011;13455;51.480;7.594;2023-06-10T11:34:15;6.10;;;4.23;;
25567;SDS011;13455;51.480;7.594;2023-06-10T11:36:48;6.80;;;4.28;;
25567;SDS011;13455;51.480;7.594;2023-06-10T11:39:14;7.15;;;4.30;;
25567;SDS011;13455;51.480;7.594;2023-06-10T11:41:40;5.67;;;4.13;;
25567;SDS011;13455;51.480;7.594;2023-06-10T11:44:07;5.28;;;4.00;;
25567;SDS011;13455;51.480;7.594;2023-06-10T11:46:38;8.75;;;4.38;;
25567;SDS011;13455;51.480;7.594;2023-06-10T11:49:05;10.23;;;4.30;;
25567;SDS011;13455;51.480;7.594;2023-06-10T11:51:35;10.30;;;4.30;;
25567;SDS011;13455;51.480;7.594;2023-06-10T11:54:04;8.02;;;3.92;;
25567;SDS011;13455;51.480;7.594;2023-06-10T11:56:30;5.90;;;4.20;;
25567;SDS011;13455;51.480;7.594;2023-06-10T12:01:23;9.23;;;4.27;;
25567;SDS011;13455;51.480;7.594;2023-06-10T12:06:38;7.10;;;4.30;;
25567;SDS011;13455;51.480;7.594;2023-06-10T12:09:04;8.32;;;4.38;;
25567;SDS011;13455;51.480;7.594;2023-06-10T12:11:31;7.90;;;4.28;;
25567;SDS011;13455;51.480;7.594;2023-06-10T12:13:56;7.10;;;4.10;;
25567;SDS011;13455;51.480;7.594;2023-06-10T12:16:22;5.80;;;3.90;;
25567;SDS011;13455;51.480;7.594;2023-06-10T12:18:47;8.47;;;4.10;;
25567;SDS011;13455;51.480;7.594;2023-06-10T12:21:20;8.85;;;4.20;;
25567;SDS011;13455;51.480;7.594;2023-06-10T12:26:42;8.10;;;4.00;;
25567;SDS011;13455;51.480;7.594;2023-06-10T12:31:55;7.28;;;4.28;;
25567;SDS011;13455;51.480;7.594;2023-06-10T12:34:33;7.22;;;4.18;;
25567;SDS011;13455;51.480;7.594;2023-06-10T12:37:01;13.32;;;4.22;;
25567;SDS011;13455;51.480;7.594;2023-06-10T12:39:29;7.40;;;4.40;;
25567;SDS011;13455;51.480;7.594;2023-06-10T12:41:55;6.72;;;4.18;;
25567;SDS011;13455;51.480;7.594;2023-06-10T12:44:33;7.03;;;4.28;;
25567;SDS011;13455;51.480;7.594;2023-06-10T12:47:00;7.05;;;4.22;;
25567;SDS011;13455;51.480;7.594;2023-06-10T12:49:26;6.10;;;4.37;;
25567;SDS011;13455;51.480;7.594;2023-06-10T12:51:52;6.03;;;4.30;;
25567;SDS011;13455;51.480;7.594;2023-06-10T12:54:19;6.35;;;4.13;;
25567;SDS011;13455;51.480;7.594;2023-06-10T12:56:45;7.50;;;4.40;;
25567;SDS011;13455;51.480;7.594;2023-06-10T12:59:11;6.57;;;4.10;;
25567;SDS011;13455;51.480;7.594;2023-06-10T13:01:37;7.22;;;4.50;;
25567;SDS011;13455;51.480;7.594;2023-06-10T13:04:04;8.75;;;4.20;;
25567;SDS011;13455;51.480;7.594;2023-06-10T13:06:31;8.10;;;4.30;;
25567;SDS011;13455;51.480;7.594;2023-06-10T13:09:01;7.75;;;4.20;;
25567;SDS011;13455;51.480;7.594;2023-06-10T13:11:27;6.03;;;4.00;;
25567;SDS011;13455;51.480;7.594;2023-06-10T13:13:53;5.82;;;4.20;;
25567;SDS011;13455;51.480;7.594;2023-06-10T13:16:19;5.85;;;3.95;;
25567;SDS011;13455;51.480;7.594;2023-06-10T13:18:45;10.50;;;4.43;;
25567;SDS011;13455;51.480;7.594;2023-06-10T13:21:11;7.97;;;4.00;;
25567;SDS011;13455;51.480;7.594;2023-06-10T13:23:37;4.97;;;4.00;;
25567;SDS011;13455;51.480;7.594;2023-06-10T13:26:03;6.60;;;4.33;;
25567;SDS011;13455;51.480;7.594;2023-06-10T13:28:29;5.85;;;4.30;;
25567;SDS011;13455;51.480;7.594;2023-06-10T13:30:55;7.40;;;4.50;;
25567;SDS011;13455;51.480;7.594;2023-06-10T13:33:21;6.50;;;4.28;;
25567;SDS011;13455;51.480;7.594;2023-06-10T13:35:47;7.45;;;4.20;;
25567;SDS011;13455;51.480;7.594;2023-06-10T13:38:13;7.07;;;4.05;;
25567;SDS011;13455;51.480;7.594;2023-06-10T13:40:38;6.13;;;4.10;;
25567;SDS011;13455;51.480;7.594;2023-06-10T13:43:04;8.73;;;4.20;;
25567;SDS011;13455;51.480;7.594;2023-06-10T13:45:30;7.43;;;4.30;;
25567;SDS011;13455;51.480;7.594;2023-06-10T13:47:55;7.23;;;4.20;;
25567;SDS011;13455;51.480;7.594;2023-06-10T13:50:21;7.20;;;4.00;;
25567;SDS011;13455;51.480;7.594;2023-06-10T13:52:47;7.28;;;3.90;;
25567;SDS011;13455;51.480;7.594;2023-06-10T13:56:43;6.23;;;4.23;;
25567;SDS011;13455;51.480;7.594;2023-06-10T13:59:09;6.68;;;4.22;;
25567;SDS011;13455;51.480;7.594;2023-06-10T14:01:35;6.30;;;4.00;;
25567;SDS011;13455;51.480;7.594;2023-06-10T14:04:00;5.87;;;4.30;;
25567;SDS011;13455;51.480;7.594;2023-06-10T14:08:59;5.45;;;4.03;;
25567;SDS011;13455;51.480;7.594;2023-06-10T14:11:25;9.47;;;4.00;;
25567;SDS011;13455;51.480;7.594;2023-06-10T14:13:51;6.75;;;4.15;;
25567;SDS011;13455;51.480;7.594;2023-06-10T14:16:17;6.00;;;4.00;;
25567;SDS011;13455;51.480;7.594;2023-06-10T14:18:42;7.37;;;4.07;;
25567;SDS011;13455;51.480;7.594;2023-06-10T14:21:08;6.23;;;3.90;;
25567;SDS011;13455;51.480;7.594;2023-06-10T14:23:34;6.65;;;4.10;;
25567;SDS011;13455;51.480;7.594;2023-06-10T14:26:00;5.25;;;3.85;;
25567;SDS011;13455;51.480;7.594;2023-06-10T14:28:27;6.07;;;3.90;;
25567;SDS011;13455;51.480;7.594;2023-06-10T14:30:53;6.70;;;3.80;;
25567;SDS011;13455;51.480;7.594;2023-06-10T14:33:19;7.20;;;3.75;;
25567;SDS011;13455;51.480;7.594;2023-06-10T14:35:45;6.50;;;3.80;;
25567;SDS011;13455;51.480;7.594;2023-06-10T14:38:10;6.50;;;3.80;;
25567;SDS011;13455;51.480;7.594;2023-06-10T14:40:36;5.63;;;3.97;;
25567;SDS011;13455;51.480;7.594;2023-06-10T14:43:02;7.05;;;4.03;;
25567;SDS011;13455;51.480;7.594;2023-06-10T14:45:34;6.63;;;3.90;;
25567;SDS011;13455;51.480;7.594;2023-06-10T14:48:03;7.05;;;3.78;;
25567;SDS011;13455;51.480;7.594;2023-06-10T14:50:29;6.20;;;3.80;;
25567;SDS011;13455;51.480;7.594;2023-06-10T14:52:55;7.32;;;3.92;;
25567;SDS011;13455;51.480;7.594;2023-06-10T14:55:21;5.70;;;3.80;;
25567;SDS011;13455;51.480;7.594;2023-06-10T14:57:47;6.88;;;3.80;;
25567;SDS011;13455;51.480;7.594;2023-06-10T15:00:13;6.88;;;3.70;;
25567;SDS011;13455;51.480;7.594;2023-06-10T15:02:41;6.40;;;4.07;;
25567;SDS011;13455;51.480;7.594;2023-06-10T15:05:07;6.30;;;3.78;;
25567;SDS011;13455;51.480;7.594;2023-06-10T15:07:33;5.93;;;3.80;;
25567;SDS011;13455;51.480;7.594;2023-06-10T15:09:59;5.63;;;3.67;;